Time;durP1;ratioP1;P1;durP2;ratioP2;P2;SDS_P1;SDS_P2;PMS_P1;PMS_P2;Temp;Humidity;BMP_temperature;BMP_pressure;BME280_temperature;BME280_humidity;BME280_pressure;Samples;Min_cycle;Max_cycle;Signal;HPM_P1;HPM_P2
2021/10/20 04:01:05;;;;;;;7.27;6.47;;;11.30;99.90;;;;;;6220869;22;20501;-69
2021/10/20 04:03:32;;;;;;;8.17;6.13;;;11.40;99.90;;;;;;6247116;23;20433;-68
2021/10/20 04:05:59;;;;;;;7.40;6.23;;;11.40;99.90;;;;;;6247313;23;20418;-68
2021/10/20 04:08:26;;;;;;;6.57;5.97;;;11.40;99.90;;;;;;6247191;23;20411;-68
2021/10/20 04:10:52;;;;;;;5.73;5.23;;;11.40;99.90;;;;;;6246940;22;20963;-68
2021/10/20 04:13:19;;;;;;;6.40;5.20;;;11.40;99.90;;;;;;6247225;23;20411;-68
2021/10/20 04:15:46;;;;;;;5.57;5.17;;;11.40;99.90;;;;;;6247149;23;20418;-68
2021/10/20 04:18:14;;;;;;;5.67;5.17;;;11.40;99.90;;;;;;6246636;23;20969;-68
2021/10/20 04:20:42;;;;;;;6.10;5.00;;;11.40;99.90;;;;;;6246572;22;20419;-68
2021/10/20 04:23:08;;;;;;;5.60;5.20;;;11.60;99.90;;;;;;6247178;23;20411;-68
2021/10/20 04:25:35;;;;;;;7.60;4.80;;;11.60;99.90;;;;;;6247161;23;20411;-68
2021/10/20 04:28:02;;;;;;;5.23;4.83;;;11.60;99.90;;;;;;6247064;23;20414;-68
2021/10/20 04:30:29;;;;;;;6.07;4.80;;;11.70;99.90;;;;;;6246691;22;20461;-69
2021/10/20 04:32:55;;;;;;;5.03;4.63;;;11.70;99.90;;;;;;6246875;23;20887;-68
2021/10/20 04:35:25;;;;;;;6.20;5.57;;;11.80;99.90;;;;;;6247114;23;20781;-68
2021/10/20 04:37:52;;;;;;;7.00;5.43;;;11.90;99.90;;;;;;6247105;23;20435;-68
2021/10/20 04:40:18;;;;;;;7.57;6.50;;;11.90;99.90;;;;;;6247245;22;20411;-68
2021/10/20 04:42:45;;;;;;;8.23;7.00;;;11.90;99.90;;;;;;6246788;23;20747;-68
2021/10/20 04:45:12;;;;;;;8.00;6.40;;;11.90;99.90;;;;;;6246907;23;20410;-68
2021/10/20 04:47:39;;;;;;;10.63;5.63;;;11.90;99.90;;;;;;6247008;23;20718;-69
2021/10/20 04:50:07;;;;;;;8.33;6.70;;;11.90;99.90;;;;;;6247265;23;20395;-69
2021/10/20 04:52:36;;;;;;;7.60;6.23;;;11.80;99.90;;;;;;6246938;22;20434;-68
2021/10/20 04:55:03;;;;;;;7.60;6.27;;;11.90;99.90;;;;;;6265177;23;20409;-68
2021/10/20 04:57:30;;;;;;;6.50;5.53;;;11.90;99.90;;;;;;6261167;23;20439;-68
2021/10/20 04:59:56;;;;;;;7.77;6.13;;;11.90;99.90;;;;;;6249203;23;20469;-68
2021/10/20 05:02:23;;;;;;;6.33;5.50;;;11.90;99.90;;;;;;6248415;22;20538;-69
2021/10/20 05:04:50;;;;;;;6.00;5.40;;;11.80;99.90;;;;;;6248725;23;20469;-69
2021/10/20 05:07:17;;;;;;;9.20;5.80;;;12.00;99.90;;;;;;6248832;23;20407;-69
2021/10/20 05:09:45;;;;;;;9.03;6.07;;;12.20;99.90;;;;;;6248325;23;20418;-69
2021/10/20 05:12:11;;;;;;;7.13;5.80;;;12.40;99.90;;;;;;6248675;22;20434;-69
2021/10/20 05:14:38;;;;;;;7.27;6.57;;;12.50;99.90;;;;;;6248275;23;20411;-66
2021/10/20 05:17:05;;;;;;;8.17;6.13;;;12.60;99.90;;;;;;6248787;23;20437;-66
2021/10/20 05:19:32;;;;;;;7.90;6.70;;;12.50;99.90;;;;;;6248718;23;20415;-66
2021/10/20 05:21:58;;;;;;;6.60;6.00;;;12.50;99.90;;;;;;6248610;22;20786;-66
2021/10/20 05:24:25;;;;;;;7.40;6.33;;;12.40;99.90;;;;;;6248565;23;20410;-66
2021/10/20 05:26:54;;;;;;;8.43;5.93;;;12.40;99.90;;;;;;6248773;23;20387;-69
2021/10/20 05:29:22;;;;;;;7.87;6.50;;;12.40;99.90;;;;;;6248748;23;20417;-69
2021/10/20 05:31:48;;;;;;;9.57;6.00;;;12.40;99.90;;;;;;6248328;22;20437;-69
2021/10/20 05:34:15;;;;;;;8.17;5.97;;;12.40;99.90;;;;;;6248050;23;20414;-68
2021/10/20 05:36:42;;;;;;;7.20;6.17;;;12.30;99.90;;;;;;6249367;23;20437;-69
2021/10/20 05:39:09;;;;;;;8.47;6.20;;;12.20;99.90;;;;;;6248748;23;20410;-69
2021/10/20 05:41:35;;;;;;;6.80;6.13;;;12.10;99.90;;;;;;6248545;22;20430;-68
2021/10/20 05:44:06;;;;;;;7.27;5.70;;;12.10;99.90;;;;;;6248646;23;20418;-68
2021/10/20 05:46:33;;;;;;;7.03;6.43;;;12.10;99.90;;;;;;6248375;23;20395;-68
2021/10/20 05:49:00;;;;;;;9.03;6.20;;;12.00;99.90;;;;;;6248281;23;20415;-68
2021/10/20 05:51:26;;;;;;;10.40;6.77;;;12.00;99.90;;;;;;6248318;22;20438;-68
2021/10/20 05:53:55;;;;;;;8.33;6.20;;;11.90;99.90;;;;;;6248780;23;20469;-68
2021/10/20 05:56:23;;;;;;;6.63;6.13;;;11.90;99.90;;;;;;6254184;23;20413;-67
2021/10/20 05:58:50;;;;;;;7.23;5.67;;;11.90;99.90;;;;;;6251293;23;20434;-64
2021/10/20 06:01:19;;;;;;;7.53;6.20;;;12.10;99.90;;;;;;6249781;22;20461;-65
2021/10/20 06:03:46;;;;;;;6.63;5.83;;;12.20;99.90;;;;;;6248962;23;20899;-67
2021/10/20 06:06:12;;;;;;;9.73;5.93;;;12.40;99.90;;;;;;6248082;23;20421;-67
2021/10/20 06:08:39;;;;;;;8.67;6.40;;;12.50;99.90;;;;;;6247099;23;20407;-66
2021/10/20 06:11:06;;;;;;;9.30;5.70;;;12.50;99.90;;;;;;6247937;22;20755;-67
2021/10/20 06:13:32;;;;;;;6.30;5.73;;;12.50;99.90;;;;;;6248098;23;20891;-67
2021/10/20 06:15:59;;;;;;;8.10;6.57;;;12.40;99.90;;;;;;6248453;23;20422;-67
2021/10/20 06:18:28;;;;;;;7.10;5.60;;;12.30;99.90;;;;;;6248057;23;20458;-66
2021/10/20 06:20:55;;;;;;;6.80;5.63;;;12.40;99.90;;;;;;6248341;22;20919;-67
2021/10/20 06:23:22;;;;;;;7.30;6.13;;;12.50;99.90;;;;;;6248736;23;20744;-67
2021/10/20 06:25:48;;;;;;;7.10;6.40;;;12.50;99.90;;;;;;6248014;23;20418;-67
2021/10/20 06:28:15;;;;;;;8.87;6.30;;;12.50;99.90;;;;;;6247759;23;20895;-66
2021/10/20 06:30:42;;;;;;;12.27;5.23;;;12.50;99.90;;;;;;6247582;22;20441;-67
2021/10/20 06:33:08;;;;;;;6.13;5.10;;;12.70;99.90;;;;;;6247699;23;20411;-67
2021/10/20 06:35:36;;;;;;;12.23;5.93;;;12.80;99.90;;;;;;6248605;23;20415;-67
2021/10/20 06:38:03;;;;;;;9.10;5.67;;;12.90;99.90;;;;;;6247463;23;20430;-67
2021/10/20 06:40:31;;;;;;;7.30;5.50;;;13.00;99.90;;;;;;6247590;22;20411;-68
2021/10/20 06:42:58;;;;;;;6.07;5.40;;;13.20;99.90;;;;;;6247752;23;20410;-67
2021/10/20 06:45:24;;;;;;;8.57;5.67;;;13.30;99.90;;;;;;6247319;23;20779;-67
2021/10/20 06:47:51;;;;;;;7.57;5.87;;;13.40;99.90;;;;;;6247269;23;20909;-67
2021/10/20 06:50:19;;;;;;;7.63;5.67;;;13.50;99.90;;;;;;6248035;22;20415;-67
2021/10/20 06:52:47;;;;;;;7.27;5.47;;;13.70;99.90;;;;;;6247934;23;20417;-67
2021/10/20 06:55:14;;;;;;;8.00;5.70;;;14.20;99.90;;;;;;6247581;23;20939;-67
2021/10/20 06:57:42;;;;;;;8.87;5.50;;;15.10;99.90;;;;;;6247713;23;20453;-67
2021/10/20 07:00:10;;;;;;;7.60;6.33;;;16.30;99.90;;;;;;6248484;23;20411;-67
2021/10/20 07:02:37;;;;;;;6.63;5.53;;;17.60;99.90;;;;;;6247982;23;20418;-66
2021/10/20 07:05:05;;;;;;;7.03;6.30;;;18.70;99.90;;;;;;6253051;23;20418;-65
2021/10/20 07:07:32;;;;;;;7.10;6.37;;;19.60;99.90;;;;;;6255146;23;20407;-65
2021/10/20 07:10:01;;;;;;;9.20;6.90;;;20.20;99.90;;;;;;6252061;23;20411;-65
2021/10/20 07:12:30;;;;;;;12.13;6.57;;;20.90;99.90;;;;;;6248686;22;20752;-66
2021/10/20 07:14:57;;;;;;;11.83;7.47;;;21.60;98.20;;;;;;6247749;23;20417;-67
2021/10/20 07:17:24;;;;;;;7.97;7.20;;;22.30;95.70;;;;;;6247171;23;20441;-67
2021/10/20 07:19:50;;;;;;;11.03;7.57;;;23.00;93.10;;;;;;6247186;23;20410;-66
2021/10/20 07:22:17;;;;;;;8.50;7.33;;;23.30;92.00;;;;;;6246858;22;20923;-66
2021/10/20 07:24:44;;;;;;;9.60;8.10;;;23.70;91.40;;;;;;6247324;23;20414;-66
2021/10/20 07:27:12;;;;;;;10.43;7.33;;;23.70;90.90;;;;;;6247244;23;20411;-66
2021/10/20 07:29:40;;;;;;;12.83;6.90;;;23.60;90.40;;;;;;6247127;23;20411;-66
2021/10/20 07:32:07;;;;;;;8.37;6.53;;;24.00;89.90;;;;;;6247028;22;20481;-66
2021/10/20 07:34:34;;;;;;;8.03;7.27;;;24.10;87.60;;;;;;6247163;23;20407;-67
2021/10/20 07:37:01;;;;;;;11.30;6.43;;;23.40;89.10;;;;;;6247068;23;20411;-65
2021/10/20 07:39:28;;;;;;;9.03;6.10;;;23.90;87.90;;;;;;6246754;23;20895;-65
2021/10/20 07:41:54;;;;;;;10.43;6.30;;;24.20;85.70;;;;;;6247024;22;20435;-65
2021/10/20 07:44:22;;;;;;;15.20;6.83;;;24.60;84.60;;;;;;6247100;23;20414;-66
2021/10/20 07:46:49;;;;;;;7.87;7.17;;;25.20;83.20;;;;;;6247066;23;20474;-66
2021/10/20 07:49:16;;;;;;;7.27;6.57;;;25.00;79.90;;;;;;6247800;23;20407;-66
2021/10/20 07:51:42;;;;;;;12.77;6.90;;;23.40;80.90;;;;;;6247128;22;20435;-65
2021/10/20 07:54:09;;;;;;;8.63;7.23;;;22.00;85.60;;;;;;6246880;23;20415;-65
2021/10/20 07:56:42;;;;;;;7.80;7.03;;;21.70;87.40;;;;;;6246849;23;20417;-65
2021/10/20 07:59:09;;;;;;;7.20;6.47;;;21.90;87.90;;;;;;6246534;23;20426;-67
2021/10/20 08:01:37;;;;;;;8.73;5.77;;;22.30;88.10;;;;;;6246313;22;20439;-65
2021/10/20 08:04:04;;;;;;;9.93;6.47;;;22.90;85.70;;;;;;6246870;23;20410;-65
2021/10/20 08:06:31;;;;;;;6.57;5.83;;;23.60;84.30;;;;;;6246522;23;20417;-66
2021/10/20 08:08:57;;;;;;;8.00;5.77;;;23.90;83.70;;;;;;6246840;23;20407;-66
2021/10/20 08:11:24;;;;;;;6.10;5.50;;;24.00;82.20;;;;;;6246709;22;20438;-66
2021/10/20 08:13:51;;;;;;;7.23;5.90;;;24.10;82.50;;;;;;6246963;23;20399;-66
2021/10/20 08:16:17;;;;;;;6.50;5.57;;;24.40;80.40;;;;;;6246996;23;20415;-65
2021/10/20 08:18:45;;;;;;;6.50;5.90;;;24.50;81.50;;;;;;6246730;23;20430;-65
2021/10/20 08:21:12;;;;;;;5.67;5.17;;;24.90;79.80;;;;;;6246598;22;20437;-66
2021/10/20 08:23:41;;;;;;;6.07;5.20;;;25.40;77.20;;;;;;6246802;23;20411;-67
2021/10/20 08:26:08;;;;;;;8.97;5.10;;;25.50;76.90;;;;;;6246814;23;20410;-67
2021/10/20 08:28:35;;;;;;;7.90;5.10;;;26.20;75.90;;;;;;6246685;23;20414;-65
2021/10/20 08:31:02;;;;;;;7.73;5.40;;;26.20;73.90;;;;;;6246371;22;20453;-65
2021/10/20 08:33:29;;;;;;;5.37;4.93;;;25.70;73.60;;;;;;6246190;23;20411;-65
2021/10/20 08:35:57;;;;;;;5.10;4.70;;;25.50;75.70;;;;;;6246793;23;20469;-65
2021/10/20 08:38:24;;;;;;;4.93;4.63;;;25.40;75.50;;;;;;6246551;23;20787;-65
2021/10/20 08:40:51;;;;;;;5.73;5.23;;;24.80;75.40;;;;;;6246683;22;20431;-67
2021/10/20 08:43:20;;;;;;;4.90;4.50;;;24.50;76.80;;;;;;6246769;23;20415;-67
2021/10/20 08:45:49;;;;;;;6.37;5.13;;;23.90;76.40;;;;;;6246787;23;20492;-66
2021/10/20 08:48:18;;;;;;;6.90;4.77;;;23.90;79.90;;;;;;6247389;23;20407;-66
2021/10/20 08:50:49;;;;;;;6.03;4.53;;;23.80;81.20;;;;;;6246775;22;20466;-66
2021/10/20 08:53:18;;;;;;;6.43;5.83;;;23.80;79.70;;;;;;6246750;23;20395;-66
2021/10/20 08:55:46;;;;;;;5.20;4.70;;;23.70;80.10;;;;;;6246553;23;20411;-66
2021/10/20 08:58:13;;;;;;;7.93;4.80;;;23.70;78.70;;;;;;6246567;23;20431;-66
2021/10/20 09:00:39;;;;;;;5.17;4.37;;;23.90;79.90;;;;;;6246317;22;20438;-66
2021/10/20 09:03:06;;;;;;;7.90;4.70;;;24.00;81.20;;;;;;6246441;23;20395;-66
2021/10/20 09:05:33;;;;;;;4.67;4.07;;;25.00;80.50;;;;;;6246619;23;20418;-66
2021/10/20 09:08:00;;;;;;;5.40;4.50;;;25.90;76.30;;;;;;6246480;23;20407;-67
2021/10/20 09:10:30;;;;;;;4.80;4.50;;;26.60;74.90;;;;;;6246769;22;20411;-67
2021/10/20 09:12:57;;;;;;;7.37;4.97;;;26.70;72.50;;;;;;6246269;23;20411;-67
2021/10/20 09:15:25;;;;;;;4.30;3.90;;;27.40;72.90;;;;;;6246550;23;20407;-66
2021/10/20 09:17:54;;;;;;;4.70;4.30;;;27.40;70.00;;;;;;6246656;23;20430;-66
2021/10/20 09:20:27;;;;;;;4.50;4.10;;;27.00;71.00;;;;;;6246692;22;20501;-67
2021/10/20 09:23:00;;;;;;;5.00;4.60;;;26.80;71.30;;;;;;6246551;23;20398;-66
2021/10/20 09:25:36;;;;;;;4.90;4.50;;;26.10;72.40;;;;;;6246417;23;20420;-66
2021/10/20 09:28:04;;;;;;;4.90;4.43;;;25.30;75.10;;;;;;6246515;23;20584;-66
2021/10/20 09:30:31;;;;;;;6.47;4.00;;;24.80;76.60;;;;;;6246382;22;20410;-66
2021/10/20 09:32:59;;;;;;;5.97;4.30;;;24.50;76.80;;;;;;6246420;23;20415;-66
2021/10/20 09:35:29;;;;;;;3.80;3.50;;;24.60;79.20;;;;;;6246312;23;20411;-66
2021/10/20 09:37:58;;;;;;;3.17;2.87;;;24.90;79.00;;;;;;6246298;23;20481;-66
2021/10/20 09:40:26;;;;;;;2.90;2.53;;;25.00;77.40;;;;;;6245798;22;20792;-66
2021/10/20 09:42:54;;;;;;;3.07;2.87;;;25.10;77.90;;;;;;6248127;23;20417;-66
2021/10/20 09:45:23;;;;;;;2.60;2.50;;;25.30;77.20;;;;;;6248213;23;20411;-66
2021/10/20 09:47:52;;;;;;;4.70;3.33;;;25.50;75.50;;;;;;6248454;23;20731;-66
2021/10/20 09:50:19;;;;;;;3.13;3.00;;;25.60;75.80;;;;;;6248178;22;20439;-67
2021/10/20 09:52:48;;;;;;;3.33;2.87;;;25.90;76.30;;;;;;6248296;23;20418;-66
2021/10/20 09:55:16;;;;;;;3.93;3.00;;;25.90;75.10;;;;;;6248260;23;20739;-66
2021/10/20 09:57:43;;;;;;;2.40;2.30;;;25.90;74.00;;;;;;6248093;23;20414;-66
2021/10/20 10:00:12;;;;;;;3.47;3.27;;;26.20;75.80;;;;;;6248014;23;20461;-66
2021/10/20 10:02:39;;;;;;;2.90;2.70;;;27.50;72.70;;;;;;6248366;23;20432;-66
2021/10/20 10:05:07;;;;;;;3.20;2.93;;;28.10;70.00;;;;;;6248190;23;20407;-66
2021/10/20 10:07:34;;;;;;;6.00;3.10;;;28.80;69.00;;;;;;6248136;23;20415;-66
2021/10/20 10:10:01;;;;;;;2.77;2.57;;;29.70;66.60;;;;;;6247705;23;20912;-66
2021/10/20 10:12:29;;;;;;;3.37;3.13;;;29.50;63.50;;;;;;6247941;22;20427;-66
2021/10/20 10:15:04;;;;;;;2.90;2.73;;;29.00;65.00;;;;;;6248146;23;20407;-66
2021/10/20 10:17:34;;;;;;;7.83;3.90;;;28.60;65.60;;;;;;6248147;23;20391;-66
2021/10/20 10:20:07;;;;;;;3.10;2.90;;;28.20;66.50;;;;;;6247926;23;20442;-66
2021/10/20 10:22:34;;;;;;;2.50;2.30;;;27.60;66.60;;;;;;6247741;22;20439;-66
2021/10/20 10:25:02;;;;;;;2.97;2.77;;;27.80;68.10;;;;;;6247550;23;20411;-66
2021/10/20 10:27:29;;;;;;;6.57;3.30;;;27.80;67.70;;;;;;6248059;23;20418;-66
2021/10/20 10:30:00;;;;;;;3.60;3.30;;;27.60;69.00;;;;;;6248078;23;20407;-66
2021/10/20 10:32:28;;;;;;;3.13;3.03;;;27.30;69.30;;;;;;6248288;22;20431;-66
2021/10/20 10:34:57;;;;;;;2.97;2.77;;;27.10;70.60;;;;;;6247893;23;20411;-66
2021/10/20 10:37:25;;;;;;;3.07;2.50;;;26.60;71.20;;;;;;6247513;23;20794;-66
2021/10/20 10:39:52;;;;;;;2.77;2.57;;;26.60;71.50;;;;;;6247943;23;20442;-66
2021/10/20 10:42:30;;;;;;;3.30;3.00;;;26.30;72.90;;;;;;6247764;22;20437;-66
2021/10/20 10:45:11;;;;;;;3.07;2.87;;;26.00;74.80;;;;;;6247648;23;20394;-66
2021/10/20 10:47:55;;;;;;;5.80;3.13;;;25.50;74.70;;;;;;6247907;23;20396;-66
2021/10/20 10:50:41;;;;;;;3.33;2.80;;;25.00;75.40;;;;;;6247811;22;20395;-66
2021/10/20 10:53:08;;;;;;;3.07;2.77;;;25.00;76.10;;;;;;6247742;23;20395;-66
2021/10/20 10:55:36;;;;;;;4.13;3.10;;;25.20;75.60;;;;;;6247454;23;20871;-66
2021/10/20 10:58:15;;;;;;;2.77;2.57;;;25.00;75.80;;;;;;6247154;23;20864;-66
2021/10/20 11:00:47;;;;;;;2.30;2.20;;;25.00;76.10;;;;;;6247476;22;20445;-66
2021/10/20 11:03:21;;;;;;;2.30;2.20;;;24.60;77.30;;;;;;6247748;23;20411;-66
2021/10/20 11:05:52;;;;;;;3.33;3.13;;;24.60;77.70;;;;;;6247888;23;20394;-66
2021/10/20 11:08:19;;;;;;;3.20;2.90;;;24.50;78.90;;;;;;6247940;23;20398;-66
2021/10/20 11:10:47;;;;;;;2.80;2.60;;;24.50;79.30;;;;;;6247561;22;20489;-66
2021/10/20 11:13:14;;;;;;;2.90;2.63;;;24.60;78.90;;;;;;6247739;23;20422;-66
2021/10/20 11:15:41;;;;;;;2.60;2.50;;;24.60;78.40;;;;;;6247641;23;20465;-66
2021/10/20 11:18:08;;;;;;;7.53;2.80;;;24.80;79.80;;;;;;6247625;23;20498;-66
2021/10/20 11:20:38;;;;;;;2.60;2.50;;;24.90;77.90;;;;;;6247540;22;20438;-66
2021/10/20 11:23:08;;;;;;;2.67;2.47;;;25.00;77.70;;;;;;6254101;23;20492;-66
2021/10/20 11:25:38;;;;;;;2.67;2.50;;;25.20;77.40;;;;;;6247403;23;20402;-66
2021/10/20 11:28:06;;;;;;;2.67;2.57;;;25.40;77.20;;;;;;6247034;23;20856;-66
2021/10/20 11:30:35;;;;;;;4.60;2.90;;;25.50;78.00;;;;;;6247286;22;20442;-66
2021/10/20 11:33:07;;;;;;;2.50;2.40;;;25.70;76.10;;;;;;6247443;23;20418;-66
2021/10/20 11:35:35;;;;;;;3.10;2.80;;;25.90;76.40;;;;;;6247474;23;20395;-66
2021/10/20 11:38:04;;;;;;;2.93;2.70;;;25.90;75.90;;;;;;6247624;23;20410;-66
2021/10/20 11:40:42;;;;;;;2.30;2.20;;;25.70;75.80;;;;;;6247197;22;20453;-66
2021/10/20 11:43:16;;;;;;;3.73;2.40;;;25.30;76.20;;;;;;6247021;23;20724;-66
2021/10/20 11:45:43;;;;;;;2.93;2.83;;;25.00;77.40;;;;;;6247058;23;20399;-66
2021/10/20 11:48:09;;;;;;;3.30;2.37;;;25.20;78.30;;;;;;6246986;23;20410;-66
2021/10/20 11:50:37;;;;;;;2.90;2.40;;;25.30;78.00;;;;;;6247257;22;20430;-66
2021/10/20 11:53:06;;;;;;;6.93;2.67;;;25.00;78.10;;;;;;6247185;23;20777;-66
2021/10/20 11:55:41;;;;;;;2.80;2.60;;;25.00;78.80;;;;;;6247183;23;20418;-66
2021/10/20 11:58:07;;;;;;;2.60;2.50;;;24.80;78.40;;;;;;6246827;23;20401;-66
2021/10/20 12:00:34;;;;;;;3.23;2.70;;;24.50;79.70;;;;;;6246140;22;20962;-66
2021/10/20 12:03:01;;;;;;;4.73;2.53;;;24.40;80.90;;;;;;6247299;23;20395;-66
2021/10/20 12:05:28;;;;;;;5.20;2.60;;;24.40;81.70;;;;;;6246632;23;20418;-66
2021/10/20 12:07:56;;;;;;;2.47;2.27;;;24.40;80.90;;;;;;6246742;23;20406;-66
2021/10/20 12:10:23;;;;;;;6.57;2.53;;;24.50;82.20;;;;;;6246534;22;20734;-66
2021/10/20 12:12:51;;;;;;;2.37;2.27;;;24.90;81.80;;;;;;6247012;23;20411;-66
2021/10/20 12:15:20;;;;;;;2.70;2.53;;;25.00;80.90;;;;;;6246782;23;20433;-66
2021/10/20 12:17:50;;;;;;;5.03;2.63;;;24.90;81.60;;;;;;6246788;23;20418;-66
2021/10/20 12:20:18;;;;;;;2.57;2.37;;;24.90;81.30;;;;;;6246455;22;20435;-67
2021/10/20 12:22:46;;;;;;;2.73;2.53;;;24.80;81.00;;;;;;6246932;23;20809;-66
2021/10/20 12:25:13;;;;;;;2.70;2.50;;;24.70;81.70;;;;;;6246184;23;20788;-66
2021/10/20 12:27:42;;;;;;;6.10;2.93;;;24.60;81.00;;;;;;6246861;23;20411;-64
2021/10/20 12:30:13;;;;;;;2.90;2.70;;;24.40;83.00;;;;;;6246547;23;20430;-63
2021/10/20 12:32:40;;;;;;;3.30;3.10;;;24.20;83.20;;;;;;6246736;23;20395;-64
2021/10/20 12:35:10;;;;;;;2.60;2.50;;;24.20;84.00;;;;;;6246515;23;20887;-64
2021/10/20 12:37:40;;;;;;;2.43;2.33;;;24.20;84.00;;;;;;6246634;23;20410;-64
2021/10/20 12:40:09;;;;;;;2.50;2.40;;;24.10;84.10;;;;;;6246594;23;20435;-64
2021/10/20 12:42:43;;;;;;;5.60;2.57;;;23.90;84.70;;;;;;6246729;22;20434;-63
2021/10/20 12:45:12;;;;;;;2.87;2.67;;;23.60;85.40;;;;;;6246719;23;20422;-64
2021/10/20 12:47:43;;;;;;;3.93;2.17;;;23.40;87.20;;;;;;6246793;23;20414;-64
2021/10/20 12:50:11;;;;;;;2.60;2.40;;;23.40;88.20;;;;;;6246471;23;20422;-64
2021/10/20 12:52:38;;;;;;;3.30;3.10;;;23.30;89.50;;;;;;6246425;22;20438;-65
2021/10/20 12:55:06;;;;;;;4.83;2.50;;;23.20;90.30;;;;;;6246635;23;20410;-65
2021/10/20 12:57:34;;;;;;;3.57;3.30;;;23.10;90.20;;;;;;6246874;23;20394;-65
2021/10/20 13:00:05;;;;;;;4.27;3.00;;;23.00;90.70;;;;;;6246935;23;20467;-66
2021/10/20 13:02:33;;;;;;;6.00;3.10;;;22.80;91.10;;;;;;6246265;22;20461;-66
2021/10/20 13:05:00;;;;;;;7.53;3.70;;;22.80;91.60;;;;;;6247065;23;20411;-64
2021/10/20 13:07:28;;;;;;;4.83;3.30;;;22.70;92.00;;;;;;6246739;23;20411;-66
2021/10/20 13:09:55;;;;;;;7.47;3.90;;;22.70;92.20;;;;;;6246616;23;20494;-64
2021/10/20 13:12:22;;;;;;;5.30;3.80;;;22.70;92.60;;;;;;6246612;22;20538;-67
2021/10/20 13:14:48;;;;;;;3.70;3.40;;;22.50;92.80;;;;;;6246938;23;20411;-64
2021/10/20 13:17:15;;;;;;;6.57;3.80;;;22.50;93.20;;;;;;6247528;23;20418;-65
2021/10/20 13:19:43;;;;;;;6.23;3.10;;;22.50;93.70;;;;;;6248397;23;20435;-66
2021/10/20 13:22:10;;;;;;;4.57;3.30;;;22.40;93.70;;;;;;6252796;22;20430;-66
2021/10/20 13:24:37;;;;;;;11.37;3.30;;;22.20;93.90;;;;;;6254899;23;20438;-66
2021/10/20 13:27:04;;;;;;;4.03;3.20;;;22.10;94.30;;;;;;6248779;23;20741;-65
2021/10/20 13:29:31;;;;;;;4.00;3.47;;;22.00;94.50;;;;;;6248324;23;20892;-65
2021/10/20 13:31:58;;;;;;;7.10;3.50;;;22.00;94.80;;;;;;6248386;22;20438;-65
2021/10/20 13:34:24;;;;;;;2.90;2.70;;;22.00;94.90;;;;;;6248720;23;20411;-65
2021/10/20 13:36:53;;;;;;;2.87;2.63;;;22.00;95.10;;;;;;6247911;23;20410;-66
2021/10/20 13:39:20;;;;;;;3.37;3.17;;;22.10;94.60;;;;;;6248696;23;20431;-65
2021/10/20 13:41:46;;;;;;;2.90;2.80;;;22.10;94.00;;;;;;6249830;22;20441;-65
2021/10/20 13:44:13;;;;;;;3.57;3.27;;;22.10;93.50;;;;;;6248264;23;20402;-68
2021/10/20 13:46:40;;;;;;;3.10;2.80;;;22.20;93.90;;;;;;6248375;23;20473;-68
2021/10/20 13:49:07;;;;;;;4.40;3.13;;;22.20;93.90;;;;;;6248207;23;20904;-69
2021/10/20 13:51:34;;;;;;;3.53;3.13;;;22.30;94.00;;;;;;6248360;22;20453;-68
2021/10/20 13:54:02;;;;;;;3.63;3.30;;;22.30;93.70;;;;;;6247922;23;20777;-68
2021/10/20 13:56:31;;;;;;;2.93;2.73;;;22.30;93.90;;;;;;6248375;23;20417;-69
2021/10/20 13:58:58;;;;;;;3.10;2.90;;;22.30;93.90;;;;;;6248147;23;20445;-70
2021/10/20 14:01:25;;;;;;;3.07;2.87;;;22.30;93.60;;;;;;6248182;22;20438;-70
2021/10/20 14:03:51;;;;;;;3.57;3.10;;;22.40;93.80;;;;;;6248346;23;20411;-69
2021/10/20 14:06:19;;;;;;;3.57;3.27;;;22.40;94.10;;;;;;6248253;23;20723;-68
2021/10/20 14:08:45;;;;;;;3.43;3.23;;;22.50;94.10;;;;;;6248198;23;20411;-68
2021/10/20 14:11:13;;;;;;;3.63;3.33;;;22.80;94.30;;;;;;6248307;22;20430;-70
2021/10/20 14:13:40;;;;;;;3.23;2.87;;;22.90;93.30;;;;;;6248136;23;20779;-70
2021/10/20 14:16:07;;;;;;;3.10;2.90;;;23.00;93.20;;;;;;6248363;23;20407;-69
2021/10/20 14:18:34;;;;;;;3.07;2.57;;;23.20;93.20;;;;;;6248555;23;20410;-69
2021/10/20 14:21:02;;;;;;;3.97;2.77;;;23.30;92.40;;;;;;6247918;22;20745;-69
2021/10/20 14:23:29;;;;;;;3.10;2.90;;;23.50;92.80;;;;;;6247979;23;20433;-69
2021/10/20 14:25:56;;;;;;;2.77;2.57;;;23.60;92.40;;;;;;6248520;23;20419;-69
2021/10/20 14:28:24;;;;;;;2.73;2.53;;;23.70;92.00;;;;;;6247733;23;20433;-69
2021/10/20 14:30:52;;;;;;;3.17;2.60;;;23.40;92.60;;;;;;6248057;22;20426;-69
2021/10/20 14:33:18;;;;;;;2.77;2.57;;;23.30;92.30;;;;;;6248166;23;20411;-69
2021/10/20 14:35:45;;;;;;;3.63;3.43;;;23.10;92.50;;;;;;6257797;23;20421;-69
2021/10/20 14:38:12;;;;;;;3.67;3.07;;;23.00;92.90;;;;;;6248301;23;20411;-69
2021/10/20 14:40:41;;;;;;;3.60;3.30;;;23.10;92.80;;;;;;6247858;22;20450;-69
2021/10/20 14:43:08;;;;;;;4.87;2.57;;;23.00;93.10;;;;;;6247930;23;20418;-69
2021/10/20 14:45:36;;;;;;;2.90;2.63;;;23.00;93.30;;;;;;6247927;23;20461;-70
2021/10/20 14:48:03;;;;;;;3.13;2.93;;;22.90;93.40;;;;;;6248085;23;20421;-70
2021/10/20 14:50:30;;;;;;;3.77;3.33;;;23.00;93.50;;;;;;6247811;22;20407;-69
2021/10/20 14:52:57;;;;;;;6.40;3.10;;;23.00;93.70;;;;;;6252859;23;20411;-70
2021/10/20 14:55:24;;;;;;;2.57;2.47;;;22.90;93.50;;;;;;6259347;23;20411;-71
2021/10/20 14:57:51;;;;;;;3.07;2.87;;;22.80;93.60;;;;;;6259669;23;20410;-71
2021/10/20 15:00:18;;;;;;;2.80;2.70;;;22.80;94.20;;;;;;6263430;22;20492;-70
2021/10/20 15:02:50;;;;;;;2.97;2.77;;;22.60;94.20;;;;;;6256290;23;20398;-71
2021/10/20 15:05:17;;;;;;;4.73;2.67;;;22.60;94.30;;;;;;6253633;23;20392;-71
2021/10/20 15:07:44;;;;;;;3.03;2.83;;;22.60;94.70;;;;;;6251365;23;20406;-71
2021/10/20 15:10:11;;;;;;;5.50;3.30;;;22.60;94.60;;;;;;6249040;23;20411;-71
2021/10/20 15:12:38;;;;;;;3.17;2.97;;;22.60;94.80;;;;;;6247603;22;20752;-71
2021/10/20 15:15:06;;;;;;;2.90;2.73;;;22.50;94.70;;;;;;6247817;23;20406;-71
2021/10/20 15:17:34;;;;;;;4.30;2.80;;;22.50;94.90;;;;;;6247150;23;20918;-70
2021/10/20 15:20:05;;;;;;;3.57;3.20;;;22.30;95.00;;;;;;6247592;23;20431;-71
2021/10/20 15:22:31;;;;;;;3.60;3.30;;;22.20;95.70;;;;;;6253784;22;20765;-70
2021/10/20 15:24:58;;;;;;;4.07;2.70;;;22.20;95.40;;;;;;6247703;23;20464;-71
2021/10/20 15:27:25;;;;;;;2.87;2.60;;;22.10;95.50;;;;;;6247678;23;20418;-71
2021/10/20 15:29:51;;;;;;;3.17;2.97;;;22.10;95.60;;;;;;6247388;23;20413;-70
2021/10/20 15:32:18;;;;;;;3.70;2.70;;;22.10;95.70;;;;;;6247695;22;20430;-70
2021/10/20 15:34:45;;;;;;;3.90;3.07;;;21.90;95.60;;;;;;6247965;23;20410;-70
2021/10/20 15:37:13;;;;;;;3.53;3.30;;;21.80;96.00;;;;;;6247401;23;20505;-71
2021/10/20 15:39:41;;;;;;;3.27;3.03;;;21.80;96.20;;;;;;6247258;23;20733;-70
2021/10/20 15:42:11;;;;;;;3.13;2.93;;;21.70;96.40;;;;;;6247855;22;20434;-67
2021/10/20 15:44:38;;;;;;;3.37;3.07;;;21.70;96.60;;;;;;6247653;23;20418;-67
2021/10/20 15:47:05;;;;;;;3.10;2.97;;;21.60;96.80;;;;;;6247041;23;20903;-66
2021/10/20 15:49:32;;;;;;;3.23;3.03;;;21.70;96.90;;;;;;6247838;23;20434;-66
2021/10/20 15:51:58;;;;;;;3.23;3.03;;;21.60;97.00;;;;;;6248051;22;20431;-66
2021/10/20 15:54:26;;;;;;;4.40;2.93;;;21.60;97.00;;;;;;6247694;23;20411;-65
2021/10/20 15:56:53;;;;;;;3.20;3.00;;;21.60;97.30;;;;;;6247709;23;20418;-65
2021/10/20 15:59:20;;;;;;;3.90;3.47;;;21.60;97.20;;;;;;6247899;23;20419;-66
2021/10/20 16:01:47;;;;;;;3.20;2.93;;;21.50;97.50;;;;;;6246944;22;20443;-65
2021/10/20 16:04:16;;;;;;;4.33;3.93;;;21.50;97.50;;;;;;6246810;23;20896;-67
2021/10/20 16:06:43;;;;;;;2.80;2.70;;;21.50;97.60;;;;;;6246674;23;20418;-66
2021/10/20 16:09:09;;;;;;;3.50;3.20;;;21.50;97.70;;;;;;6247180;23;20748;-66
2021/10/20 16:11:37;;;;;;;6.00;3.50;;;21.50;97.70;;;;;;6246467;22;20936;-66
2021/10/20 16:14:04;;;;;;;2.97;2.77;;;21.50;97.90;;;;;;6247091;23;20411;-65
2021/10/20 16:16:31;;;;;;;3.50;3.27;;;21.40;98.00;;;;;;6247677;23;20411;-66
2021/10/20 16:18:57;;;;;;;3.60;3.30;;;21.40;98.30;;;;;;6247155;23;20422;-66
2021/10/20 16:21:25;;;;;;;5.23;3.27;;;21.30;98.30;;;;;;6247055;22;20438;-65
2021/10/20 16:23:52;;;;;;;3.73;3.43;;;21.30;98.40;;;;;;6246699;23;20918;-64
2021/10/20 16:26:18;;;;;;;4.37;3.87;;;21.30;98.70;;;;;;6247120;23;20411;-65
2021/10/20 16:28:47;;;;;;;3.07;2.77;;;21.30;98.80;;;;;;6246960;23;20418;-63
2021/10/20 16:31:15;;;;;;;4.47;4.07;;;21.20;99.00;;;;;;6246497;22;20427;-65
2021/10/20 16:33:42;;;;;;;3.10;2.90;;;21.20;99.10;;;;;;6246773;23;20417;-65
2021/10/20 16:36:10;;;;;;;4.20;3.90;;;21.20;99.30;;;;;;6247130;23;20417;-66
2021/10/20 16:38:39;;;;;;;3.70;3.30;;;21.20;99.50;;;;;;6246477;23;20417;-64
2021/10/20 16:41:06;;;;;;;3.80;3.50;;;21.10;99.50;;;;;;6246772;22;20439;-65
2021/10/20 16:43:33;;;;;;;4.03;3.67;;;21.00;99.70;;;;;;6246779;23;20418;-66
2021/10/20 16:46:02;;;;;;;3.83;3.43;;;21.00;99.90;;;;;;6246807;23;20418;-66
2021/10/20 16:48:28;;;;;;;3.93;3.60;;;20.90;99.90;;;;;;6246935;23;20411;-66